Time;durP1;ratioP1;P1;durP2;ratioP2;P2;SDS_P1;SDS_P2;PMS_P1;PMS_P2;Temp;Humidity;BMP_temperature;BMP_pressure;BME280_temperature;BME280_humidity;BME280_pressure;Samples;Min_cycle;Max_cycle;Signal;HPM_P1;HPM_P2
2022/10/04 00:01:05;;;;;;;1.83;1.73;;;;;7.00;96689.00;;;;5115669;28;20201;-50
2022/10/04 00:03:36;;;;;;;1.73;1.60;;;;;6.90;96691.00;;;;5115835;28;20201;-56
2022/10/04 00:06:14;;;;;;;1.47;1.37;;;;;6.90;96688.00;;;;5115892;28;20508;-54
2022/10/04 00:08:45;;;;;;;1.83;1.73;;;;;6.90;96688.00;;;;5115881;28;20213;-52
2022/10/04 00:11:19;;;;;;;1.10;1.10;;;;;6.90;96680.00;;;;5115876;28;20209;-51
2022/10/04 00:13:51;;;;;;;1.00;1.00;;;;;6.90;96683.00;;;;5115510;28;20769;-50
2022/10/04 00:16:26;;;;;;;1.83;1.73;;;;;6.90;96673.00;;;;5115556;28;20532;-51
2022/10/04 00:19:04;;;;;;;1.63;1.53;;;;;6.90;96679.00;;;;5097561;28;20232;-51
2022/10/04 00:22:07;;;;;;;1.43;1.23;;;;;6.80;96686.00;;;;5115909;28;20262;-51
2022/10/04 00:24:35;;;;;;;1.00;1.00;;;;;6.90;96675.00;;;;5115568;28;20221;-51
2022/10/04 00:27:21;;;;;;;1.77;1.67;;;;;6.80;96676.00;;;;5115515;28;20198;-54
2022/10/04 00:30:05;;;;;;;0.80;0.80;;;;;6.70;96684.00;;;;5115234;28;20221;-52
2022/10/04 00:32:46;;;;;;;1.80;1.70;;;;;6.50;96678.00;;;;5096895;28;20193;-51
2022/10/04 00:35:47;;;;;;;0.97;0.97;;;;;6.50;96674.00;;;;5114942;28;20190;-51
2022/10/04 00:38:16;;;;;;;0.93;0.93;;;;;6.60;96675.00;;;;5115218;28;20209;-51
2022/10/04 00:40:49;;;;;;;0.87;0.87;;;;;6.70;96664.00;;;;5114982;28;20205;-51
2022/10/04 00:43:20;;;;;;;0.63;0.63;;;;;6.60;96657.00;;;;5115071;28;20341;-51
2022/10/04 00:45:51;;;;;;;0.97;0.97;;;;;6.60;96662.00;;;;5115029;28;20210;-51
2022/10/04 00:48:33;;;;;;;0.93;0.93;;;;;6.60;96666.00;;;;5114943;28;20218;-51
2022/10/04 00:51:06;;;;;;;1.17;1.17;;;;;6.60;96654.00;;;;5114914;28;20244;-51
2022/10/04 00:53:50;;;;;;;0.57;0.57;;;;;6.60;96661.00;;;;5115157;28;20244;-54
2022/10/04 00:56:25;;;;;;;1.20;1.17;;;;;6.60;96647.00;;;;5114962;28;20198;-53
2022/10/04 00:59:16;;;;;;;0.97;0.97;;;;;6.60;96651.00;;;;5114817;28;20213;-51
2022/10/04 01:01:50;;;;;;;0.83;0.83;;;;;6.50;96658.00;;;;5114808;28;20220;-52
2022/10/04 01:04:34;;;;;;;0.60;0.60;;;;;6.60;96648.00;;;;5096656;28;20273;-51
2022/10/04 01:07:04;;;;;;;1.03;1.03;;;;;6.50;96647.00;;;;5114696;28;20257;-53
2022/10/04 01:09:35;;;;;;;1.40;1.40;;;;;6.50;96646.00;;;;5114571;28;20321;-51
2022/10/04 01:12:08;;;;;;;1.33;1.27;;;;;6.50;96637.00;;;;5114698;28;20212;-52
2022/10/04 01:14:46;;;;;;;0.90;0.90;;;;;6.40;96630.00;;;;5114602;28;20715;-54
2022/10/04 01:17:15;;;;;;;1.50;1.37;;;;;6.40;96625.00;;;;5114555;28;20170;-51
2022/10/04 01:19:51;;;;;;;1.47;1.37;;;;;6.30;96635.00;;;;5114424;28;20201;-51
2022/10/04 01:22:36;;;;;;;0.80;0.80;;;;;6.20;96636.00;;;;5114396;28;20193;-51
2022/10/04 01:25:03;;;;;;;0.73;0.73;;;;;5.90;96638.00;;;;5114435;28;20205;-51
2022/10/04 01:27:42;;;;;;;7.97;2.47;;;;;5.90;96635.00;;;;5114355;28;20196;-51
2022/10/04 01:30:12;;;;;;;0.73;0.73;;;;;5.80;96635.00;;;;5096253;28;20224;-51
2022/10/04 01:32:39;;;;;;;1.43;1.30;;;;;6.00;96630.00;;;;5114169;28;20228;-51
2022/10/04 01:35:08;;;;;;;1.27;1.00;;;;;6.00;96638.00;;;;5114406;28;20212;-56
2022/10/04 01:37:38;;;;;;;1.37;1.27;;;;;6.10;96630.00;;;;5114266;28;20277;-56
2022/10/04 01:40:07;;;;;;;1.00;1.00;;;;;6.20;96624.00;;;;5096566;28;20514;-52
2022/10/04 01:42:40;;;;;;;0.73;0.73;;;;;6.20;96627.00;;;;5114154;28;20218;-51
2022/10/04 01:45:13;;;;;;;0.70;0.70;;;;;6.20;96612.00;;;;5114235;28;20254;-52
2022/10/04 01:47:43;;;;;;;1.13;1.13;;;;;6.20;96612.00;;;;5113276;28;20210;-51
2022/10/04 01:50:16;;;;;;;1.17;1.17;;;;;6.20;96613.00;;;;5114010;28;20231;-51
2022/10/04 01:52:49;;;;;;;0.90;0.90;;;;;6.10;96609.00;;;;5114069;28;20194;-51
2022/10/04 01:55:19;;;;;;;0.60;0.60;;;;;6.00;96613.00;;;;5113941;28;20282;-52
2022/10/04 01:57:49;;;;;;;0.63;0.63;;;;;6.00;96611.00;;;;5113847;28;20206;-51
2022/10/04 02:00:16;;;;;;;1.30;1.27;;;;;6.00;96603.00;;;;5113830;28;20226;-52
2022/10/04 02:02:48;;;;;;;0.67;0.67;;;;;5.90;96600.00;;;;5113972;28;20627;-56
2022/10/04 02:05:20;;;;;;;0.67;0.67;;;;;6.00;96604.00;;;;5113964;28;20215;-54
2022/10/04 02:07:48;;;;;;;1.00;1.00;;;;;5.90;96600.00;;;;5113744;28;20262;-51
2022/10/04 02:10:20;;;;;;;0.87;0.87;;;;;6.00;96598.00;;;;5113604;28;20220;-51
2022/10/04 02:12:49;;;;;;;0.90;0.90;;;;;5.90;96589.00;;;;5113708;28;20219;-51
2022/10/04 02:15:20;;;;;;;0.90;0.90;;;;;6.00;96591.00;;;;5113649;28;20313;-51
2022/10/04 02:17:48;;;;;;;0.50;0.50;;;;;6.00;96602.00;;;;5113553;28;20649;-51
2022/10/04 02:20:18;;;;;;;1.13;1.13;;;;;5.90;96592.00;;;;5095730;28;20198;-51
2022/10/04 02:22:48;;;;;;;0.90;0.90;;;;;5.90;96596.00;;;;5113432;28;20231;-51
2022/10/04 02:25:17;;;;;;;0.73;0.73;;;;;5.80;96584.00;;;;5113647;28;20278;-50
2022/10/04 02:27:44;;;;;;;1.27;1.17;;;;;5.80;96581.00;;;;5113495;28;20221;-51
2022/10/04 02:30:13;;;;;;;0.67;0.67;;;;;5.80;96583.00;;;;5113222;28;20255;-51
2022/10/04 02:32:59;;;;;;;0.73;0.73;;;;;5.80;96578.00;;;;5113204;28;20182;-52
2022/10/04 02:35:28;;;;;;;0.60;0.60;;;;;5.70;96576.00;;;;5095258;28;20201;-51
2022/10/04 02:38:05;;;;;;;1.53;1.20;;;;;5.70;96571.00;;;;5113203;28;20602;-50
2022/10/04 02:40:39;;;;;;;0.60;0.60;;;;;5.70;96569.00;;;;5095461;28;20261;-51
2022/10/04 02:43:12;;;;;;;0.60;0.60;;;;;5.70;96562.00;;;;5095107;28;20229;-52
2022/10/04 02:45:47;;;;;;;0.73;0.73;;;;;5.60;96569.00;;;;5113259;28;20192;-52
2022/10/04 02:48:34;;;;;;;0.73;0.73;;;;;5.60;96567.00;;;;5112144;28;20235;-52
2022/10/04 02:51:14;;;;;;;0.70;0.70;;;;;5.40;96567.00;;;;5113070;28;20233;-51
2022/10/04 02:53:59;;;;;;;1.00;1.00;;;;;5.60;96573.00;;;;5113196;28;20268;-51
2022/10/04 02:56:29;;;;;;;0.97;0.97;;;;;5.60;96562.00;;;;5113020;28;20286;-53
2022/10/04 02:59:01;;;;;;;0.70;0.70;;;;;5.60;96560.00;;;;5113101;28;20194;-51
2022/10/04 03:01:37;;;;;;;1.00;1.00;;;;;5.60;96560.00;;;;5116563;28;20228;-51
2022/10/04 03:04:04;;;;;;;1.43;1.40;;;;;5.60;96571.00;;;;5116778;28;20204;-51
2022/10/04 03:06:32;;;;;;;0.80;0.80;;;;;5.60;96562.00;;;;5116571;28;20216;-51
2022/10/04 03:09:04;;;;;;;0.70;0.70;;;;;5.70;96573.00;;;;5116689;28;20703;-51
2022/10/04 03:11:36;;;;;;;1.00;1.00;;;;;5.60;96568.00;;;;5116664;28;20195;-51
2022/10/04 03:14:06;;;;;;;0.67;0.67;;;;;5.60;96565.00;;;;5116286;28;20278;-51
2022/10/04 03:16:36;;;;;;;0.77;0.77;;;;;5.50;96568.00;;;;5116459;28;20191;-51
2022/10/04 03:19:04;;;;;;;2.80;0.83;;;;;5.30;96568.00;;;;5098210;28;20311;-51
2022/10/04 03:21:32;;;;;;;0.60;0.60;;;;;5.20;96563.00;;;;5116345;28;20617;-52
2022/10/04 03:24:01;;;;;;;0.80;0.80;;;;;5.30;96565.00;;;;5116237;28;20275;-51
2022/10/04 03:26:31;;;;;;;1.10;1.10;;;;;5.20;96564.00;;;;5116237;28;20492;-51
2022/10/04 03:29:01;;;;;;;0.90;0.90;;;;;5.20;96557.00;;;;5116110;28;20233;-51
2022/10/04 03:31:28;;;;;;;0.70;0.70;;;;;5.10;96555.00;;;;5116332;28;20204;-52
2022/10/04 03:33:57;;;;;;;0.80;0.80;;;;;5.00;96564.00;;;;5116228;28;20192;-51
2022/10/04 03:36:25;;;;;;;6.43;1.07;;;;;4.90;96561.00;;;;5116257;28;20195;-52
2022/10/04 03:38:54;;;;;;;0.70;0.70;;;;;5.10;96558.00;;;;5116100;28;20197;-51
2022/10/04 03:41:24;;;;;;;1.03;1.03;;;;;5.20;96546.00;;;;5116089;28;20499;-51
2022/10/04 03:43:55;;;;;;;1.27;1.17;;;;;5.20;96546.00;;;;5115972;28;20285;-51
2022/10/04 03:46:24;;;;;;;0.80;0.80;;;;;5.30;96551.00;;;;5115913;28;20225;-51
2022/10/04 03:48:53;;;;;;;0.77;0.77;;;;;5.20;96552.00;;;;5115925;28;20263;-51
2022/10/04 03:51:22;;;;;;;1.23;1.23;;;;;5.10;96555.00;;;;5115733;28;20694;-51
2022/10/04 03:53:51;;;;;;;0.60;0.60;;;;;5.20;96554.00;;;;5116079;28;20644;-51
2022/10/04 03:56:24;;;;;;;0.60;0.60;;;;;5.10;96546.00;;;;5115916;28;20218;-51
2022/10/04 03:58:52;;;;;;;1.27;0.93;;;;;5.10;96540.00;;;;5115870;28;20271;-51
2022/10/04 04:01:39;;;;;;;1.67;1.43;;;;;5.10;96546.00;;;;5097673;28;20233;-51
2022/10/04 04:04:19;;;;;;;0.70;0.70;;;;;5.20;96541.00;;;;5115702;28;20290;-51
2022/10/04 04:06:55;;;;;;;0.73;0.73;;;;;5.20;96537.00;;;;5115602;28;20300;-51
2022/10/04 04:09:25;;;;;;;0.97;0.97;;;;;5.20;96547.00;;;;5115599;28;20216;-51
2022/10/04 04:11:55;;;;;;;1.33;1.23;;;;;5.20;96546.00;;;;5096918;28;20229;-51
2022/10/04 04:14:26;;;;;;;0.90;0.90;;;;;5.20;96549.00;;;;5115503;28;20348;-51
2022/10/04 04:17:14;;;;;;;1.30;1.30;;;;;5.10;96539.00;;;;5115516;28;20213;-51
2022/10/04 04:19:42;;;;;;;0.70;0.70;;;;;5.10;96545.00;;;;5115228;28;20212;-51
2022/10/04 04:22:14;;;;;;;0.73;0.73;;;;;5.10;96538.00;;;;5115254;28;20221;-51
2022/10/04 04:24:42;;;;;;;1.57;1.47;;;;;5.10;96535.00;;;;5115351;28;20290;-51
2022/10/04 04:27:12;;;;;;;0.70;0.70;;;;;5.00;96540.00;;;;5115239;28;20219;-51
2022/10/04 04:29:46;;;;;;;0.63;0.63;;;;;5.00;96548.00;;;;5097116;28;20218;-51
2022/10/04 04:32:19;;;;;;;0.90;0.90;;;;;5.00;96542.00;;;;5115204;28;20223;-51
2022/10/04 04:34:51;;;;;;;1.13;1.13;;;;;5.00;96547.00;;;;5115106;28;20641;-53
2022/10/04 04:37:19;;;;;;;1.47;1.37;;;;;5.10;96546.00;;;;5097926;28;20645;-51
2022/10/04 04:39:53;;;;;;;1.43;1.33;;;;;5.10;96543.00;;;;5116659;28;20269;-51
2022/10/04 04:42:30;;;;;;;0.70;0.70;;;;;5.10;96541.00;;;;5114832;28;20225;-51
2022/10/04 04:45:00;;;;;;;0.90;0.90;;;;;5.10;96529.00;;;;5115135;28;20215;-52
2022/10/04 04:47:33;;;;;;;0.70;0.70;;;;;5.00;96535.00;;;;5114950;28;20221;-51
2022/10/04 04:50:05;;;;;;;0.70;0.70;;;;;5.00;96539.00;;;;5114961;28;20218;-51
2022/10/04 04:52:34;;;;;;;0.60;0.60;;;;;4.90;96543.00;;;;5114865;28;20224;-51
2022/10/04 04:55:01;;;;;;;1.00;1.00;;;;;4.90;96546.00;;;;5114760;28;20212;-51
2022/10/04 04:57:29;;;;;;;0.83;0.83;;;;;4.90;96545.00;;;;5114781;28;20217;-51
2022/10/04 05:00:00;;;;;;;0.60;0.60;;;;;5.00;96544.00;;;;5114936;28;20201;-51
2022/10/04 05:02:29;;;;;;;1.17;1.17;;;;;4.90;96540.00;;;;5114604;28;20216;-50
2022/10/04 05:05:17;;;;;;;4.10;1.53;;;;;5.00;96539.00;;;;5114767;28;20190;-50
2022/10/04 05:07:44;;;;;;;0.80;0.80;;;;;4.90;96542.00;;;;5114676;28;20221;-51
2022/10/04 05:10:29;;;;;;;0.70;0.70;;;;;4.90;96549.00;;;;5114763;28;20256;-51
2022/10/04 05:12:58;;;;;;;0.77;0.77;;;;;4.80;96547.00;;;;5096846;28;20272;-51
2022/10/04 05:15:26;;;;;;;0.80;0.80;;;;;4.90;96542.00;;;;5114631;28;20198;-54
2022/10/04 05:17:53;;;;;;;0.60;0.60;;;;;4.80;96534.00;;;;5096409;28;20620;-52
2022/10/04 05:20:20;;;;;;;0.67;0.67;;;;;4.70;96539.00;;;;5096371;28;20281;-50
2022/10/04 05:22:48;;;;;;;11.90;1.37;;;;;4.70;96536.00;;;;5113460;28;20225;-51
2022/10/04 05:25:24;;;;;;;0.50;0.50;;;;;4.80;96544.00;;;;5114372;28;20197;-51
2022/10/04 05:27:52;;;;;;;0.57;0.57;;;;;4.50;96550.00;;;;5096419;28;20221;-51
2022/10/04 05:30:41;;;;;;;0.50;0.50;;;;;4.60;96553.00;;;;5114296;28;20308;-51
2022/10/04 05:33:11;;;;;;;0.60;0.60;;;;;4.80;96539.00;;;;5114198;28;20304;-51
2022/10/04 05:36:08;;;;;;;0.90;0.90;;;;;4.90;96551.00;;;;5114290;28;20220;-51
2022/10/04 05:38:42;;;;;;;0.60;0.60;;;;;5.00;96562.00;;;;5114266;28;20223;-52
2022/10/04 05:41:21;;;;;;;0.90;0.90;;;;;5.00;96563.00;;;;5114154;28;20213;-52
2022/10/04 05:43:49;;;;;;;0.60;0.60;;;;;4.90;96554.00;;;;5114141;28;20286;-51
2022/10/04 05:46:21;;;;;;;0.80;0.80;;;;;4.90;96554.00;;;;5096029;28;20587;-51
2022/10/04 05:48:53;;;;;;;2.50;2.07;;;;;5.10;96560.00;;;;5113999;28;20198;-51
2022/10/04 05:51:22;;;;;;;1.00;1.00;;;;;5.20;96555.00;;;;5114034;28;20228;-51
2022/10/04 05:53:51;;;;;;;0.60;0.60;;;;;5.10;96560.00;;;;5113919;28;20648;-51
2022/10/04 05:56:36;;;;;;;0.70;0.70;;;;;5.10;96560.00;;;;5113934;28;20628;-51
2022/10/04 05:59:17;;;;;;;0.90;0.90;;;;;4.90;96528.00;;;;5113959;28;20211;-51
2022/10/04 06:01:54;;;;;;;1.17;1.17;;;;;4.90;96558.00;;;;5095915;28;20501;-51
2022/10/04 06:04:41;;;;;;;1.33;1.00;;;;;4.80;96556.00;;;;5113969;28;20328;-51
2022/10/04 06:07:20;;;;;;;3.70;3.20;;;;;5.10;96549.00;;;;5113762;28;20196;-51
2022/10/04 06:10:18;;;;;;;5.33;4.93;;;;;5.20;96561.00;;;;5113781;28;20203;-51
2022/10/04 06:12:54;;;;;;;1.23;1.23;;;;;5.20;96548.00;;;;5113904;28;20221;-51
2022/10/04 06:15:44;;;;;;;0.70;0.70;;;;;5.10;96555.00;;;;5113907;28;20205;-51
2022/10/04 06:18:33;;;;;;;0.77;0.77;;;;;5.10;96561.00;;;;5113539;28;20321;-56
2022/10/04 06:21:16;;;;;;;0.97;0.97;;;;;5.20;96564.00;;;;5113571;28;20191;-51
2022/10/04 06:23:48;;;;;;;0.67;0.67;;;;;5.30;96565.00;;;;5113483;28;20677;-51
2022/10/04 06:26:20;;;;;;;0.90;0.90;;;;;5.30;96562.00;;;;5113735;28;20190;-51
2022/10/04 06:28:51;;;;;;;0.80;0.80;;;;;5.40;96569.00;;;;5113554;28;20296;-51
2022/10/04 06:31:52;;;;;;;0.70;0.70;;;;;5.50;96570.00;;;;5113767;28;20227;-52
2022/10/04 06:34:43;;;;;;;0.70;0.70;;;;;5.70;96573.00;;;;5088325;28;20264;-52
2022/10/04 06:37:24;;;;;;;0.60;0.60;;;;;5.70;96581.00;;;;5109602;28;20226;-51
2022/10/04 06:40:09;;;;;;;0.60;0.60;;;;;5.70;96572.00;;;;5113685;28;20201;-52
2022/10/04 06:43:05;;;;;;;1.00;1.00;;;;;5.70;96567.00;;;;5113336;28;20190;-52
2022/10/04 06:45:51;;;;;;;0.77;0.77;;;;;5.80;96564.00;;;;5096413;28;20218;-52
2022/10/04 06:48:34;;;;;;;0.60;0.60;;;;;5.80;96572.00;;;;5113270;28;20285;-52
2022/10/04 06:51:14;;;;;;;0.70;0.70;;;;;5.70;96575.00;;;;5113239;28;20289;-52
2022/10/04 06:53:54;;;;;;;0.50;0.50;;;;;5.70;96581.00;;;;5113164;28;20297;-52
2022/10/04 06:56:47;;;;;;;1.60;1.27;;;;;5.80;96572.00;;;;5113116;28;20201;-52
2022/10/04 06:59:44;;;;;;;0.80;0.80;;;;;6.00;96569.00;;;;5113110;28;20232;-51
2022/10/04 07:02:18;;;;;;;0.60;0.60;;;;;6.10;96570.00;;;;5104773;28;20202;-50
2022/10/04 07:04:49;;;;;;;0.60;0.60;;;;;6.30;96574.00;;;;5113103;28;20226;-51
2022/10/04 07:07:34;;;;;;;1.00;1.00;;;;;6.50;96563.00;;;;5113010;28;20204;-51
2022/10/04 07:10:22;;;;;;;0.57;0.57;;;;;6.50;96552.00;;;;5112878;28;20221;-52
2022/10/04 07:12:58;;;;;;;0.77;0.77;;;;;6.50;96549.00;;;;5094961;28;20209;-54
2022/10/04 07:15:33;;;;;;;0.90;0.90;;;;;6.50;96563.00;;;;5095173;28;20204;-52
2022/10/04 07:18:07;;;;;;;0.67;0.67;;;;;6.50;96557.00;;;;5112988;28;20716;-53
2022/10/04 07:20:36;;;;;;;0.50;0.50;;;;;6.60;96556.00;;;;5113195;28;20219;-52
2022/10/04 07:23:13;;;;;;;1.07;1.07;;;;;6.60;96560.00;;;;5094899;28;20520;-52
2022/10/04 07:25:48;;;;;;;0.70;0.70;;;;;6.70;96555.00;;;;5113203;28;20208;-52
2022/10/04 07:31:10;;;;;;;0.83;0.83;;;;;6.70;96561.00;;;;5112729;28;20329;-50
2022/10/04 07:33:47;;;;;;;1.10;1.00;;;;;6.80;96574.00;;;;5112623;28;20201;-52
2022/10/04 07:36:20;;;;;;;0.60;0.60;;;;;6.90;96572.00;;;;5112793;28;20208;-50
2022/10/04 07:38:52;;;;;;;1.03;1.03;;;;;7.10;96576.00;;;;5112882;28;20205;-50
2022/10/04 07:41:23;;;;;;;1.30;1.20;;;;;7.10;96578.00;;;;5112560;28;20651;-50
2022/10/04 07:43:55;;;;;;;0.50;0.50;;;;;7.20;96579.00;;;;5094523;28;20270;-50
2022/10/04 07:46:32;;;;;;;0.80;0.80;;;;;7.30;96585.00;;;;5114346;28;20193;-50
2022/10/04 07:48:59;;;;;;;0.93;0.93;;;;;7.50;96589.00;;;;5097942;28;20210;-50
2022/10/04 07:51:36;;;;;;;0.50;0.50;;;;;7.50;96589.00;;;;5115764;28;20678;-50
2022/10/04 07:54:17;;;;;;;0.50;0.50;;;;;7.60;96592.00;;;;5097759;28;20551;-51
2022/10/04 07:56:50;;;;;;;0.90;0.90;;;;;7.70;96584.00;;;;5115924;28;20645;-50
2022/10/04 07:59:39;;;;;;;0.97;0.97;;;;;7.90;96593.00;;;;5116293;28;20222;-50
2022/10/04 08:02:18;;;;;;;0.70;0.70;;;;;7.90;96603.00;;;;5097902;28;20276;-52
2022/10/04 08:04:55;;;;;;;0.83;0.83;;;;;7.80;96592.00;;;;5115874;28;20298;-52
2022/10/04 08:07:25;;;;;;;0.60;0.60;;;;;7.90;96593.00;;;;5115916;28;20204;-53
2022/10/04 08:10:05;;;;;;;0.50;0.50;;;;;8.00;96588.00;;;;5116136;28;20218;-54
2022/10/04 08:12:43;;;;;;;0.80;0.80;;;;;8.20;96588.00;;;;5115551;28;20300;-55
2022/10/04 08:15:35;;;;;;;0.60;0.60;;;;;8.50;96587.00;;;;5115668;28;20217;-50
2022/10/04 08:18:14;;;;;;;0.67;0.67;;;;;8.60;96578.00;;;;5115486;28;20206;-50
2022/10/04 08:20:47;;;;;;;2.97;2.17;;;;;8.70;96575.00;;;;5115441;28;20293;-51
2022/10/04 08:23:40;;;;;;;1.00;1.00;;;;;8.80;96583.00;;;;5115432;28;20194;-51
2022/10/04 08:26:28;;;;;;;0.60;0.60;;;;;9.00;96575.00;;;;5115543;28;20198;-50
2022/10/04 08:32:03;;;;;;;0.90;0.90;;;;;9.10;96575.00;;;;5115413;28;20204;-50
2022/10/04 08:34:50;;;;;;;0.60;0.60;;;;;9.10;96571.00;;;;5115495;28;20212;-52
2022/10/04 08:37:27;;;;;;;0.80;0.80;;;;;8.90;96574.00;;;;5114606;28;20660;-51
2022/10/04 08:40:16;;;;;;;0.87;0.87;;;;;9.00;96569.00;;;;5115454;28;20328;-53
2022/10/04 08:43:20;;;;;;;0.63;0.63;;;;;9.20;96565.00;;;;5115227;28;20296;-52
2022/10/04 08:46:16;;;;;;;0.80;0.80;;;;;9.60;96559.00;;;;5072798;28;20266;-54
2022/10/04 08:49:23;;;;;;;1.13;1.13;;;;;9.90;96575.00;;;;5111090;28;20233;-51
2022/10/04 08:52:32;;;;;;;0.87;0.87;;;;;10.10;96559.00;;;;5115416;28;20625;-52
2022/10/04 08:55:36;;;;;;;3.57;1.63;;;;;10.20;96565.00;;;;5115420;28;20322;-53
2022/10/04 08:58:40;;;;;;;0.67;0.67;;;;;10.40;96566.00;;;;5085930;28;20308;-52
2022/10/04 09:01:30;;;;;;;2.20;1.80;;;;;10.70;96566.00;;;;5115400;28;20213;-54
2022/10/04 09:04:39;;;;;;;1.40;0.87;;;;;11.00;96576.00;;;;5114976;28;20205;-52
2022/10/04 09:07:44;;;;;;;1.37;1.00;;;;;11.00;96581.00;;;;5114902;28;20229;-52
2022/10/04 09:10:36;;;;;;;1.27;1.27;;;;;11.40;96585.00;;;;5106489;28;20230;-51
2022/10/04 09:13:16;;;;;;;1.00;1.00;;;;;11.60;96587.00;;;;5114967;28;20229;-52
2022/10/04 09:16:06;;;;;;;1.03;1.03;;;;;11.80;96586.00;;;;5115236;28;20194;-53
2022/10/04 09:19:12;;;;;;;1.60;1.50;;;;;12.00;96589.00;;;;5102293;28;20245;-52
2022/10/04 09:22:02;;;;;;;0.70;0.70;;;;;12.10;96595.00;;;;5114630;28;20197;-53
2022/10/04 09:24:58;;;;;;;1.00;1.00;;;;;12.40;96588.00;;;;5114613;28;20194;-51
2022/10/04 09:27:42;;;;;;;3.33;1.03;;;;;12.60;96593.00;;;;5114598;28;20186;-53
2022/10/04 09:30:18;;;;;;;0.87;0.87;;;;;12.80;96588.00;;;;5114639;28;20208;-51
2022/10/04 09:33:23;;;;;;;1.17;0.70;;;;;12.80;96588.00;;;;5114425;28;20214;-51
2022/10/04 09:36:14;;;;;;;0.70;0.70;;;;;13.10;96573.00;;;;5114414;28;20229;-53
2022/10/04 09:39:15;;;;;;;0.77;0.77;;;;;13.10;96566.00;;;;5114390;28;20283;-51
2022/10/04 09:41:55;;;;;;;2.57;1.50;;;;;13.30;96572.00;;;;5114516;28;20524;-51
2022/10/04 09:45:01;;;;;;;1.13;1.13;;;;;13.20;96580.00;;;;5114281;28;20274;-49
2022/10/04 09:47:41;;;;;;;0.90;0.90;;;;;13.20;96576.00;;;;5066080;28;20625;-53
2022/10/04 09:50:36;;;;;;;0.80;0.80;;;;;13.30;96567.00;;;;5113903;28;20348;-50
2022/10/04 09:53:30;;;;;;;0.63;0.63;;;;;13.20;96560.00;;;;5114161;28;20222;-53
2022/10/04 09:56:29;;;;;;;0.77;0.77;;;;;13.30;96562.00;;;;5114054;28;20190;-52
2022/10/04 09:59:20;;;;;;;1.33;1.33;;;;;13.30;96572.00;;;;5114034;28;20213;-55
2022/10/04 10:02:03;;;;;;;0.93;0.93;;;;;13.40;96568.00;;;;5114157;28;20214;-52
2022/10/04 10:04:42;;;;;;;0.80;0.80;;;;;13.50;96562.00;;;;5113996;28;20602;-53
2022/10/04 10:07:21;;;;;;;0.60;0.60;;;;;13.90;96557.00;;;;5113952;28;20202;-55
2022/10/04 10:16:04;;;;;;;1.23;1.23;;;;;14.30;96563.00;;;;5096016;28;20745;-54
2022/10/04 10:18:48;;;;;;;0.90;0.90;;;;;14.60;96560.00;;;;5113605;28;20200;-51
2022/10/04 10:21:38;;;;;;;1.20;1.20;;;;;14.70;96568.00;;;;5095723;28;20258;-61
2022/10/04 10:24:37;;;;;;;0.63;0.63;;;;;14.80;96571.00;;;;5095703;28;20182;-53
2022/10/04 10:27:29;;;;;;;1.47;1.47;;;;;15.10;96572.00;;;;5097974;28;20198;-61
2022/10/04 10:30:19;;;;;;;1.53;1.43;;;;;15.20;96566.00;;;;5113772;28;20228;-55
2022/10/04 10:33:20;;;;;;;0.73;0.73;;;;;15.40;96565.00;;;;5106684;28;20489;-55
2022/10/04 10:36:02;;;;;;;0.90;0.90;;;;;15.50;96563.00;;;;5110104;28;20247;-58
2022/10/04 10:38:49;;;;;;;0.53;0.53;;;;;15.50;96565.00;;;;5114029;28;20194;-52
2022/10/04 10:41:38;;;;;;;0.60;0.60;;;;;15.40;96555.00;;;;5113705;28;20217;-54
2022/10/04 10:44:22;;;;;;;1.07;1.03;;;;;15.70;96556.00;;;;5113528;28;20221;-57
2022/10/04 10:47:00;;;;;;;1.20;1.20;;;;;15.70;96560.00;;;;5113489;28;20229;-53
2022/10/04 10:49:40;;;;;;;0.80;0.80;;;;;15.80;96554.00;;;;5113439;28;20212;-51
2022/10/04 10:52:38;;;;;;;0.60;0.60;;;;;15.70;96553.00;;;;5113352;28;20652;-51
2022/10/04 10:55:28;;;;;;;3.00;1.33;;;;;15.90;96561.00;;;;5113392;28;20268;-52
2022/10/04 10:58:36;;;;;;;0.80;0.80;;;;;15.90;96560.00;;;;5113481;28;20612;-51
2022/10/04 11:01:25;;;;;;;0.97;0.97;;;;;16.20;96557.00;;;;5113511;28;20222;-52
2022/10/04 11:04:17;;;;;;;2.40;1.20;;;;;16.30;96564.00;;;;5113263;28;20632;-51
2022/10/04 11:07:15;;;;;;;1.37;1.27;;;;;16.50;96564.00;;;;5113238;28;20299;-51
2022/10/04 11:10:14;;;;;;;0.93;0.93;;;;;16.80;96553.00;;;;5113056;28;20194;-53
2022/10/04 11:13:20;;;;;;;0.50;0.50;;;;;16.90;96551.00;;;;5095274;28;20286;-51
2022/10/04 11:16:18;;;;;;;0.80;0.80;;;;;17.00;96539.00;;;;5112101;28;20226;-51
2022/10/04 11:19:33;;;;;;;0.63;0.63;;;;;17.30;96539.00;;;;5097834;28;20238;-54
2022/10/04 11:22:34;;;;;;;0.80;0.80;;;;;17.60;96545.00;;;;5115824;28;20202;-52
2022/10/04 11:25:28;;;;;;;0.70;0.70;;;;;17.50;96536.00;;;;5083540;28;20251;-52
2022/10/04 11:28:01;;;;;;;0.80;0.80;;;;;17.60;96545.00;;;;5116378;28;20209;-52
2022/10/04 11:30:51;;;;;;;0.60;0.60;;;;;17.40;96539.00;;;;5116221;28;20232;-51
2022/10/04 11:33:56;;;;;;;0.70;0.70;;;;;17.60;96530.00;;;;5116291;28;20201;-52
2022/10/04 11:36:32;;;;;;;0.63;0.63;;;;;17.50;96528.00;;;;5098301;28;20209;-52
2022/10/04 11:39:13;;;;;;;0.60;0.60;;;;;17.90;96524.00;;;;5116065;28;20274;-52
2022/10/04 11:41:50;;;;;;;0.77;0.77;;;;;18.50;96524.00;;;;5116168;28;20201;-52
2022/10/04 11:44:53;;;;;;;0.63;0.63;;;;;18.90;96523.00;;;;5116129;28;20231;-52
2022/10/04 11:47:40;;;;;;;0.97;0.97;;;;;18.70;96528.00;;;;5116098;28;20178;-52
2022/10/04 11:50:34;;;;;;;1.20;1.20;;;;;19.20;96526.00;;;;5115746;28;20271;-52
2022/10/04 11:53:26;;;;;;;1.10;1.10;;;;;19.40;96523.00;;;;5115921;28;20217;-52
2022/10/04 11:56:19;;;;;;;4.83;1.70;;;;;19.40;96517.00;;;;5115962;28;20182;-52
2022/10/04 11:59:10;;;;;;;0.80;0.80;;;;;19.30;96529.00;;;;5097714;28;20213;-52
2022/10/04 12:01:58;;;;;;;0.70;0.70;;;;;19.20;96523.00;;;;5115862;28;20266;-56
2022/10/04 12:04:52;;;;;;;1.80;1.13;;;;;19.70;96518.00;;;;5115952;28;20248;-55
2022/10/04 12:07:43;;;;;;;0.50;0.50;;;;;20.00;96517.00;;;;5115676;28;20201;-52
2022/10/04 12:10:23;;;;;;;0.50;0.50;;;;;20.00;96511.00;;;;5115305;28;20276;-50
2022/10/04 12:13:37;;;;;;;0.50;0.50;;;;;20.10;96507.00;;;;5115717;28;20186;-55
2022/10/04 12:16:36;;;;;;;0.50;0.50;;;;;20.60;96505.00;;;;5115685;28;20225;-53
2022/10/04 12:19:57;;;;;;;0.90;0.90;;;20.70;41.40;20.70;96502.00;;;;5115404;28;20821;-53
2022/10/04 12:22:42;;;;;;;0.90;0.90;;;;;20.80;96512.00;;;;5115436;28;20717;-54
2022/10/04 12:26:00;;;;;;;0.70;0.70;;;;;20.70;96511.00;;;;5115468;28;20276;-52
2022/10/04 12:28:49;;;;;;;0.43;0.43;;;;;20.30;96506.00;;;;5089111;28;20230;-52
2022/10/04 12:31:23;;;;;;;0.63;0.63;;;;;20.20;96497.00;;;;5114957;28;20305;-55
2022/10/04 12:34:02;;;;;;;0.50;0.50;;;20.50;37.10;20.40;96499.00;;;;5115536;28;20258;-54
2022/10/04 12:36:48;;;;;;;0.87;0.70;;;;;20.90;96501.00;;;;5115390;28;20302;-54
2022/10/04 12:39:33;;;;;;;1.53;0.87;;;;;21.00;96496.00;;;;5097599;28;20328;-53
2022/10/04 12:42:24;;;;;;;0.60;0.60;;;21.10;36.10;20.30;96500.00;;;;5065311;28;20286;-54
2022/10/04 12:45:15;;;;;;;0.40;0.40;;;;;20.80;96501.00;;;;5097816;28;20560;-55
2022/10/04 12:48:20;;;;;;;0.50;0.50;;;;;20.80;96499.00;;;;5115551;28;20264;-54
2022/10/04 12:51:04;;;;;;;0.53;0.53;;;21.00;34.20;21.30;96486.00;;;;5097618;28;20221;-60
2022/10/04 12:53:49;;;;;;;0.63;0.63;;;21.30;31.90;21.70;96497.00;;;;5115375;28;20603;-53
2022/10/04 12:56:38;;;;;;;0.43;0.43;;;21.60;31.40;21.90;96485.00;;;;5115481;28;20190;-52
2022/10/04 12:59:26;;;;;;;0.87;0.87;;;;;21.80;96487.00;;;;5115442;28;20197;-55
2022/10/04 13:02:07;;;;;;;0.70;0.70;;;21.90;30.10;21.90;96489.00;;;;5115430;28;20648;-55
2022/10/04 13:04:38;;;;;;;0.47;0.47;;;;;22.30;96489.00;;;;5115391;28;20193;-55
2022/10/04 13:07:46;;;;;;;0.52;0.52;;;22.40;28.60;23.10;96492.00;;;;5115071;28;20218;-55
2022/10/04 13:10:35;;;;;;;0.60;0.60;;;;;22.30;96483.00;;;;5115171;28;20210;-53
2022/10/04 13:13:26;;;;;;;0.70;0.70;;;;;23.20;96483.00;;;;5097202;28;20236;-55
2022/10/04 13:15:57;;;;;;;1.07;1.07;;;;;23.50;96483.00;;;;5097103;28;20194;-55
2022/10/04 13:18:31;;;;;;;0.80;0.80;;;;;24.60;96479.00;;;;5115162;28;20201;-52
2022/10/04 13:21:04;;;;;;;0.50;0.50;;;24.10;28.70;24.00;96475.00;;;;5115092;28;20198;-52
2022/10/04 13:23:51;;;;;;;0.30;0.30;;;23.80;28.00;24.10;96483.00;;;;5113896;28;20198;-54
2022/10/04 13:26:45;;;;;;;0.40;0.40;;;24.00;26.50;24.20;96473.00;;;;5114803;28;20294;-52
2022/10/04 13:29:26;;;;;;;0.50;0.50;;;;;24.70;96471.00;;;;5114910;28;20252;-53
2022/10/04 13:32:01;;;;;;;0.57;0.57;;;24.40;24.20;25.10;96463.00;;;;5114740;28;20264;-51
2022/10/04 13:34:40;;;;;;;2.63;0.80;;;24.60;26.30;25.80;96464.00;;;;5114893;28;20202;-52
2022/10/04 13:37:27;;;;;;;0.60;0.60;;;25.20;24.40;26.50;96460.00;;;;5096753;28;20297;-55